Time;durP1;ratioP1;P1;durP2;ratioP2;P2;SDS_P1;SDS_P2;PMS_P1;PMS_P2;Temp;Humidity;BMP_temperature;BMP_pressure;BME280_temperature;BME280_humidity;BME280_pressure;Samples;Min_cycle;Max_cycle;Signal;HPM_P1;HPM_P2
2023/06/29 00:01:44;;;;;;;29.77;21.02;;;18.30;99.90;;;;;;5073477;28;20462;-70
2023/06/29 00:04:09;;;;;;;26.77;20.50;;;18.20;99.90;;;;;;5073303;28;20044;-69
2023/06/29 00:06:37;;;;;;;29.63;20.85;;;18.20;99.90;;;;;;5073291;28;20040;-69
2023/06/29 00:09:05;;;;;;;26.10;19.00;;;18.20;99.90;;;;;;5073287;28;20072;-69
2023/06/29 00:11:33;;;;;;;29.75;19.52;;;18.20;99.90;;;;;;5055362;28;20053;-69
2023/06/29 00:13:58;;;;;;;30.83;19.90;;;18.20;99.90;;;;;;5073433;28;20036;-69
2023/06/29 00:16:24;;;;;;;30.55;19.95;;;18.20;99.90;;;;;;5055388;28;20044;-70
2023/06/29 00:18:54;;;;;;;30.08;19.83;;;18.20;99.90;;;;;;5038551;28;20036;-69
2023/06/29 00:21:20;;;;;;;26.75;18.88;;;18.20;99.90;;;;;;5054983;28;20056;-69
2023/06/29 00:23:45;;;;;;;27.83;18.33;;;18.10;99.90;;;;;;5055335;28;20040;-69
2023/06/29 00:26:13;;;;;;;28.23;19.60;;;18.10;99.90;;;;;;5055285;28;20490;-69
2023/06/29 00:28:39;;;;;;;27.17;19.35;;;18.10;99.90;;;;;;5054922;28;20036;-69
2023/06/29 00:31:05;;;;;;;28.88;20.02;;;18.10;99.90;;;;;;5072988;28;20119;-69
2023/06/29 00:33:32;;;;;;;33.70;19.27;;;18.10;99.90;;;;;;5051489;28;20132;-69
2023/06/29 00:35:58;;;;;;;27.00;19.17;;;18.10;99.90;;;;;;5051849;28;20406;-69
2023/06/29 00:38:23;;;;;;;31.20;20.05;;;18.10;99.90;;;;;;5051585;28;20112;-69
2023/06/29 00:40:49;;;;;;;27.27;19.23;;;18.10;99.90;;;;;;5051382;28;20106;-69
2023/06/29 00:43:15;;;;;;;29.13;19.23;;;18.10;99.90;;;;;;5052719;28;20048;-69
2023/06/29 00:45:40;;;;;;;27.95;19.42;;;18.10;99.90;;;;;;5035000;28;20052;-69
2023/06/29 00:48:06;;;;;;;28.38;19.33;;;18.10;99.90;;;;;;5034991;28;20044;-69
2023/06/29 00:50:32;;;;;;;26.13;18.48;;;18.10;99.90;;;;;;5051301;28;20478;-69
2023/06/29 00:52:59;;;;;;;30.60;19.45;;;18.10;99.90;;;;;;5052509;28;20128;-70
2023/06/29 00:55:25;;;;;;;28.83;19.90;;;18.10;99.90;;;;;;5034551;28;20045;-69
2023/06/29 00:57:50;;;;;;;28.90;18.30;;;18.10;99.90;;;;;;5050945;28;20048;-69
2023/06/29 01:00:17;;;;;;;28.60;18.80;;;18.00;99.90;;;;;;5034642;28;20049;-69
2023/06/29 01:02:43;;;;;;;28.25;19.70;;;18.00;99.90;;;;;;5051106;28;20516;-69
2023/06/29 01:05:10;;;;;;;23.65;17.92;;;18.00;99.90;;;;;;5051327;28;20037;-69
2023/06/29 01:07:57;;;;;;;27.65;18.80;;;18.00;99.90;;;;;;5052450;28;20048;-69
2023/06/29 01:10:30;;;;;;;28.02;19.23;;;18.00;99.90;;;;;;5052316;28;20418;-69
2023/06/29 01:12:59;;;;;;;29.65;19.23;;;18.00;99.90;;;;;;5052013;28;20042;-70
2023/06/29 01:15:25;;;;;;;27.90;19.50;;;18.00;99.90;;;;;;5034399;28;20040;-70
2023/06/29 01:17:55;;;;;;;31.15;19.65;;;18.00;99.90;;;;;;5052092;28;20041;-69
2023/06/29 01:20:25;;;;;;;26.17;18.38;;;18.00;99.90;;;;;;5050816;28;20498;-69
2023/06/29 01:23:14;;;;;;;26.70;18.05;;;18.00;99.90;;;;;;5050917;28;20041;-69
2023/06/29 01:25:42;;;;;;;26.88;17.75;;;18.00;99.90;;;;;;5052211;28;20052;-69
2023/06/29 01:28:09;;;;;;;26.40;18.90;;;18.00;99.90;;;;;;5051653;28;20041;-69
2023/06/29 01:30:48;;;;;;;24.83;17.95;;;17.90;99.90;;;;;;5051960;28;20041;-69
2023/06/29 01:33:18;;;;;;;31.20;19.13;;;17.90;99.90;;;;;;5051562;28;20517;-69
2023/06/29 01:35:45;;;;;;;25.50;17.75;;;18.00;99.90;;;;;;5051741;28;20045;-69
2023/06/29 01:38:24;;;;;;;29.42;16.75;;;18.00;99.90;;;;;;5051962;28;20042;-69
2023/06/29 01:40:51;;;;;;;24.60;17.08;;;17.90;99.90;;;;;;5050455;28;20041;-69
2023/06/29 01:43:18;;;;;;;25.52;17.65;;;17.90;99.90;;;;;;5050721;28;20049;-69
2023/06/29 01:45:47;;;;;;;28.35;17.77;;;17.90;99.90;;;;;;5051723;28;20099;-70
2023/06/29 01:48:13;;;;;;;24.40;17.90;;;17.90;99.90;;;;;;5051252;28;20115;-70
2023/06/29 01:50:39;;;;;;;24.42;17.13;;;18.00;99.90;;;;;;5050161;28;20072;-69
2023/06/29 01:53:05;;;;;;;24.48;16.23;;;17.90;99.90;;;;;;5033331;28;20041;-69
2023/06/29 01:55:31;;;;;;;27.73;17.48;;;17.90;99.90;;;;;;5050381;28;20041;-69
2023/06/29 01:57:57;;;;;;;30.00;18.83;;;17.90;99.90;;;;;;5016799;28;20052;-69
2023/06/29 02:00:23;;;;;;;23.85;17.00;;;18.00;99.90;;;;;;5050330;28;20379;-69
2023/06/29 02:02:49;;;;;;;31.10;17.70;;;17.90;99.90;;;;;;5051521;28;20126;-69
2023/06/29 02:05:15;;;;;;;26.42;17.83;;;17.90;99.90;;;;;;5049906;28;20056;-71
2023/06/29 02:07:40;;;;;;;24.23;17.20;;;18.00;99.90;;;;;;5051066;28;20123;-69
2023/06/29 02:10:07;;;;;;;26.05;16.83;;;18.00;99.90;;;;;;5050913;28;20076;-69
2023/06/29 02:12:33;;;;;;;24.88;17.70;;;17.90;99.90;;;;;;5051095;28;20063;-69
2023/06/29 02:14:58;;;;;;;25.70;18.83;;;18.00;99.90;;;;;;5051068;28;20454;-69
2023/06/29 02:17:24;;;;;;;22.42;16.50;;;18.00;99.90;;;;;;5049666;28;20044;-69
2023/06/29 02:19:50;;;;;;;31.35;18.27;;;17.90;99.90;;;;;;5049937;28;20048;-69
2023/06/29 02:22:15;;;;;;;25.13;17.40;;;18.00;99.90;;;;;;5050817;28;20383;-69
2023/06/29 02:24:41;;;;;;;28.38;18.67;;;17.90;99.90;;;;;;5050783;28;20048;-69
2023/06/29 02:27:07;;;;;;;26.15;17.75;;;17.90;99.90;;;;;;5049667;28;20509;-69
2023/06/29 02:29:33;;;;;;;26.80;18.52;;;17.90;99.90;;;;;;5050487;28;20545;-70
2023/06/29 02:31:58;;;;;;;27.55;18.27;;;17.90;99.90;;;;;;5049262;28;20049;-69
2023/06/29 02:34:24;;;;;;;23.35;16.92;;;17.90;99.90;;;;;;5050554;28;20114;-70
2023/06/29 02:36:50;;;;;;;26.50;18.52;;;17.90;99.90;;;;;;5049495;28;20406;-70
2023/06/29 02:39:16;;;;;;;24.15;18.20;;;17.90;99.90;;;;;;5050548;28;20462;-69
2023/06/29 02:41:41;;;;;;;30.42;18.20;;;17.90;99.90;;;;;;5050599;28;20572;-70
2023/06/29 02:44:07;;;;;;;26.05;17.67;;;17.80;99.90;;;;;;5050500;28;20040;-70
2023/06/29 02:46:33;;;;;;;25.17;18.05;;;17.80;99.90;;;;;;5049386;28;20501;-70
2023/06/29 02:48:58;;;;;;;27.55;18.35;;;17.80;99.90;;;;;;5050624;28;20041;-70
2023/06/29 02:51:24;;;;;;;27.52;18.88;;;17.80;99.90;;;;;;5049355;28;20116;-69
2023/06/29 02:53:50;;;;;;;24.00;18.48;;;17.80;99.90;;;;;;5049025;28;20033;-69
2023/06/29 02:56:16;;;;;;;24.08;18.13;;;17.80;99.90;;;;;;5050835;28;20041;-69
2023/06/29 02:58:41;;;;;;;33.50;19.80;;;17.90;99.90;;;;;;5047891;28;20047;-69
2023/06/29 03:01:07;;;;;;;29.05;17.85;;;17.90;99.90;;;;;;5049111;28;20083;-69
2023/06/29 03:03:33;;;;;;;25.75;19.35;;;17.80;99.90;;;;;;5050256;28;20041;-69
2023/06/29 03:05:58;;;;;;;27.83;19.30;;;17.90;99.90;;;;;;5048951;28;20051;-70
2023/06/29 03:08:24;;;;;;;29.33;19.63;;;17.90;99.90;;;;;;5032436;28;20045;-70
2023/06/29 03:10:50;;;;;;;26.60;17.90;;;17.90;99.90;;;;;;5050237;28;20390;-69
2023/06/29 03:13:15;;;;;;;28.98;18.75;;;17.90;99.90;;;;;;5049815;28;20102;-69
2023/06/29 03:15:41;;;;;;;27.05;19.23;;;17.90;99.90;;;;;;5049983;28;20119;-69
2023/06/29 03:18:07;;;;;;;28.98;19.15;;;17.90;99.90;;;;;;5048629;28;20045;-69
2023/06/29 03:20:32;;;;;;;28.48;19.38;;;17.90;99.90;;;;;;5049783;28;20045;-69
2023/06/29 03:22:58;;;;;;;27.60;19.00;;;18.00;99.90;;;;;;5049978;28;20076;-69
2023/06/29 03:25:24;;;;;;;29.00;19.52;;;18.00;99.90;;;;;;5049949;28;20041;-69
2023/06/29 03:27:50;;;;;;;32.95;20.10;;;18.00;99.90;;;;;;5049598;28;20469;-69
2023/06/29 03:30:16;;;;;;;33.75;20.30;;;18.00;99.90;;;;;;5031588;28;20044;-69
2023/06/29 03:32:41;;;;;;;30.85;19.92;;;18.00;99.90;;;;;;5015624;28;20045;-70
2023/06/29 03:35:07;;;;;;;29.55;21.17;;;18.00;99.90;;;;;;5065902;28;20060;-69
2023/06/29 03:37:36;;;;;;;33.63;20.98;;;18.00;99.90;;;;;;5070077;28;20573;-69
2023/06/29 03:40:01;;;;;;;33.42;20.33;;;18.00;99.90;;;;;;5069827;28;20047;-70
2023/06/29 03:42:27;;;;;;;32.72;21.13;;;18.00;99.90;;;;;;5069931;28;20032;-70
2023/06/29 03:44:53;;;;;;;29.13;21.50;;;18.00;99.90;;;;;;5051776;28;20087;-69
2023/06/29 03:47:18;;;;;;;31.10;20.92;;;18.10;99.90;;;;;;5070078;28;20040;-69
2023/06/29 03:49:44;;;;;;;35.55;23.10;;;18.00;99.90;;;;;;5035182;28;20041;-69
2023/06/29 03:52:10;;;;;;;34.38;22.95;;;18.00;99.90;;;;;;5069782;28;20041;-69
2023/06/29 03:54:35;;;;;;;29.40;21.35;;;18.10;99.90;;;;;;5070293;28;20551;-69
2023/06/29 03:57:02;;;;;;;34.38;21.83;;;18.10;99.90;;;;;;5069754;28;20059;-70
2023/06/29 03:59:28;;;;;;;40.53;23.20;;;18.10;99.90;;;;;;5051405;28;20045;-69
2023/06/29 04:01:54;;;;;;;30.15;22.33;;;18.10;99.90;;;;;;5051765;28;20041;-69
2023/06/29 04:04:20;;;;;;;32.28;22.40;;;18.10;99.90;;;;;;5051857;28;20059;-70
2023/06/29 04:06:45;;;;;;;32.95;22.17;;;18.20;99.90;;;;;;5035339;28;20032;-69
2023/06/29 04:09:11;;;;;;;36.08;22.35;;;18.20;99.90;;;;;;5069551;28;20082;-70
2023/06/29 04:11:37;;;;;;;37.42;23.45;;;18.20;99.90;;;;;;5055013;28;20033;-70
2023/06/29 04:14:03;;;;;;;36.47;21.65;;;18.20;99.90;;;;;;5055138;28;20090;-70
2023/06/29 04:16:29;;;;;;;34.67;22.27;;;18.20;99.90;;;;;;5073342;28;20032;-70
2023/06/29 04:18:54;;;;;;;32.33;21.45;;;18.20;99.90;;;;;;5055463;28;20043;-69
2023/06/29 04:21:20;;;;;;;34.95;22.00;;;18.20;99.90;;;;;;5073071;28;20040;-70
2023/06/29 04:23:46;;;;;;;34.33;22.77;;;18.30;99.90;;;;;;5073283;28;20086;-70
2023/06/29 04:26:13;;;;;;;34.45;23.05;;;18.30;99.90;;;;;;5055069;28;20529;-69
2023/06/29 04:28:44;;;;;;;32.13;22.60;;;18.30;99.90;;;;;;5072962;28;20040;-69
2023/06/29 04:31:10;;;;;;;33.00;21.80;;;18.30;99.90;;;;;;5072775;28;20441;-69
2023/06/29 04:33:35;;;;;;;38.05;23.05;;;18.30;99.90;;;;;;5051724;28;20078;-69
2023/06/29 04:36:01;;;;;;;41.15;23.35;;;18.30;99.90;;;;;;5051710;28;20063;-70
2023/06/29 04:38:27;;;;;;;32.88;21.83;;;18.30;99.90;;;;;;5052984;28;20052;-70
2023/06/29 04:41:03;;;;;;;35.72;23.15;;;18.30;99.90;;;;;;5052759;28;20040;-69
2023/06/29 04:43:30;;;;;;;34.45;21.70;;;18.30;99.90;;;;;;5051815;28;20441;-70
2023/06/29 04:45:56;;;;;;;32.15;21.77;;;18.30;99.90;;;;;;5052778;28;20163;-70
2023/06/29 04:48:29;;;;;;;33.38;22.02;;;18.40;99.90;;;;;;5051513;28;20508;-69
2023/06/29 04:51:04;;;;;;;32.97;22.30;;;18.40;99.90;;;;;;5053023;28;20045;-70
2023/06/29 04:53:34;;;;;;;33.40;21.85;;;18.40;99.90;;;;;;5034770;28;20041;-70
2023/06/29 04:56:01;;;;;;;31.70;20.73;;;18.40;99.90;;;;;;5052526;28;20036;-70
2023/06/29 04:58:30;;;;;;;32.40;22.15;;;18.40;99.90;;;;;;5052259;28;20033;-69
2023/06/29 05:00:56;;;;;;;36.00;22.23;;;18.50;99.90;;;;;;5052079;28;20041;-70
2023/06/29 05:03:26;;;;;;;36.63;23.45;;;18.50;99.90;;;;;;5018128;28;20047;-69
2023/06/29 05:05:52;;;;;;;33.00;22.08;;;18.60;99.90;;;;;;5052190;28;20072;-70
2023/06/29 05:08:18;;;;;;;31.85;22.13;;;18.60;99.90;;;;;;5052350;28;20081;-69
2023/06/29 05:10:44;;;;;;;30.45;20.58;;;18.60;99.90;;;;;;5050675;28;20041;-70
2023/06/29 05:13:10;;;;;;;28.60;21.23;;;18.70;99.90;;;;;;5034367;28;20102;-70
2023/06/29 05:15:35;;;;;;;28.13;21.17;;;18.70;99.90;;;;;;5051889;28;20040;-70
2023/06/29 05:18:01;;;;;;;34.85;22.63;;;18.80;99.90;;;;;;5052231;28;20068;-70
2023/06/29 05:20:27;;;;;;;31.10;20.67;;;18.80;99.90;;;;;;5050748;28;20398;-70
2023/06/29 05:22:53;;;;;;;32.60;22.33;;;18.90;99.90;;;;;;5051333;28;20500;-69
2023/06/29 05:25:18;;;;;;;31.25;21.58;;;19.00;99.90;;;;;;5034376;28;20122;-70
2023/06/29 05:27:44;;;;;;;31.08;22.80;;;19.00;99.90;;;;;;5033643;28;20045;-70
2023/06/29 05:30:11;;;;;;;37.65;23.02;;;19.10;99.90;;;;;;5034279;28;20037;-70
2023/06/29 05:32:37;;;;;;;35.80;23.38;;;19.20;99.90;;;;;;5034007;28;20073;-70
2023/06/29 05:35:03;;;;;;;34.42;23.67;;;19.20;99.90;;;;;;5050468;28;20529;-70
2023/06/29 05:37:33;;;;;;;36.22;23.88;;;19.30;99.90;;;;;;5050397;28;20052;-70
2023/06/29 05:39:59;;;;;;;34.65;24.33;;;19.40;99.90;;;;;;5050494;28;20045;-70
2023/06/29 05:42:25;;;;;;;36.30;24.40;;;19.40;99.90;;;;;;5050422;28;20040;-72
2023/06/29 05:44:50;;;;;;;34.28;24.23;;;19.50;99.90;;;;;;5050473;28;20048;-72
2023/06/29 05:47:18;;;;;;;39.13;22.98;;;19.50;99.90;;;;;;5051641;28;20056;-72
2023/06/29 05:49:44;;;;;;;38.55;25.27;;;19.60;99.90;;;;;;5051492;28;20049;-72
2023/06/29 05:52:10;;;;;;;33.17;24.20;;;19.60;99.90;;;;;;5050080;28;20053;-73
2023/06/29 05:54:37;;;;;;;33.50;22.98;;;19.70;99.90;;;;;;5051365;28;20045;-71
2023/06/29 05:57:03;;;;;;;33.67;23.40;;;19.70;99.90;;;;;;5050371;28;20098;-72
2023/06/29 05:59:29;;;;;;;33.38;23.15;;;19.80;99.90;;;;;;5049724;28;20033;-72
2023/06/29 06:01:56;;;;;;;36.90;23.90;;;19.80;99.90;;;;;;5050702;28;20053;-72
2023/06/29 06:04:21;;;;;;;31.50;22.30;;;19.80;99.90;;;;;;5051234;28;20171;-72
2023/06/29 06:06:47;;;;;;;35.58;24.33;;;19.90;99.90;;;;;;5051360;28;20123;-73
2023/06/29 06:09:13;;;;;;;35.25;23.23;;;19.90;99.90;;;;;;5051146;28;20448;-71
2023/06/29 06:11:38;;;;;;;34.45;22.80;;;19.90;99.90;;;;;;5051037;28;20037;-72
2023/06/29 06:14:04;;;;;;;35.60;23.48;;;20.00;99.90;;;;;;5049872;28;20112;-72
2023/06/29 06:16:30;;;;;;;33.20;21.88;;;20.00;99.90;;;;;;5049828;28;20033;-73
2023/06/29 06:18:56;;;;;;;30.77;21.95;;;20.10;99.90;;;;;;5049734;28;20127;-73
2023/06/29 06:21:23;;;;;;;35.97;22.75;;;20.10;99.90;;;;;;5049479;28;20063;-72
2023/06/29 06:23:49;;;;;;;35.33;24.33;;;20.20;99.90;;;;;;5051089;28;20037;-72
2023/06/29 06:26:15;;;;;;;36.53;23.67;;;20.20;99.90;;;;;;5049468;28;20694;-71
2023/06/29 06:28:41;;;;;;;34.35;22.05;;;20.20;99.90;;;;;;5050732;28;20120;-74
2023/06/29 06:31:06;;;;;;;34.88;24.02;;;20.30;99.90;;;;;;5050986;28;20499;-72
2023/06/29 06:33:32;;;;;;;35.15;23.85;;;20.30;99.90;;;;;;5034976;28;20262;-72
2023/06/29 06:35:59;;;;;;;36.92;24.83;;;20.40;99.90;;;;;;5053028;28;20086;-72
2023/06/29 06:38:25;;;;;;;38.90;26.35;;;20.40;99.90;;;;;;5070486;28;20040;-72
2023/06/29 06:40:51;;;;;;;38.65;26.42;;;20.30;99.90;;;;;;5052612;28;20124;-72
2023/06/29 06:43:17;;;;;;;37.33;26.33;;;20.30;99.90;;;;;;5052408;28;20056;-72
2023/06/29 06:45:44;;;;;;;40.55;27.27;;;20.30;99.90;;;;;;5052546;28;20463;-72
2023/06/29 06:48:09;;;;;;;41.60;28.00;;;20.30;99.90;;;;;;5070263;28;20520;-72
2023/06/29 06:50:35;;;;;;;39.97;27.48;;;20.30;99.90;;;;;;5052758;28;20052;-72
2023/06/29 06:53:01;;;;;;;43.17;26.08;;;20.30;99.90;;;;;;5070539;28;20546;-72
2023/06/29 06:55:27;;;;;;;38.53;27.55;;;20.30;99.90;;;;;;5070860;28;20113;-72
2023/06/29 06:57:53;;;;;;;39.28;27.20;;;20.40;99.90;;;;;;5052197;28;20055;-72
2023/06/29 07:00:19;;;;;;;39.42;25.60;;;20.40;99.90;;;;;;5070498;28;20253;-72
2023/06/29 07:02:45;;;;;;;38.80;26.73;;;20.40;99.90;;;;;;5052260;28;20037;-72
2023/06/29 07:05:11;;;;;;;37.13;24.42;;;20.50;99.90;;;;;;5052789;28;20098;-72
2023/06/29 07:07:37;;;;;;;34.67;25.45;;;20.50;99.90;;;;;;5070562;28;20142;-73
2023/06/29 07:10:06;;;;;;;38.08;25.55;;;20.60;99.90;;;;;;5052188;28;20078;-71
2023/06/29 07:12:32;;;;;;;37.80;24.95;;;20.60;99.90;;;;;;5070154;28;20045;-72
2023/06/29 07:14:57;;;;;;;38.25;25.25;;;20.60;99.90;;;;;;5052232;28;20043;-72
2023/06/29 07:17:23;;;;;;;35.00;24.73;;;20.60;99.90;;;;;;5070001;28;20051;-72
2023/06/29 07:19:49;;;;;;;33.05;23.50;;;20.60;99.90;;;;;;5052291;28;20478;-72
2023/06/29 07:22:15;;;;;;;36.28;24.35;;;20.70;99.90;;;;;;5070164;28;20102;-72
2023/06/29 07:24:40;;;;;;;34.10;24.05;;;20.70;99.90;;;;;;5052211;28;20041;-72
2023/06/29 07:27:06;;;;;;;36.63;23.33;;;20.70;99.90;;;;;;5052291;28;20045;-71
2023/06/29 07:29:33;;;;;;;36.03;23.83;;;20.70;99.90;;;;;;5069834;28;20457;-72
2023/06/29 07:31:59;;;;;;;36.60;24.23;;;20.70;99.90;;;;;;5052196;28;20045;-72
2023/06/29 07:34:24;;;;;;;37.67;24.67;;;20.80;99.90;;;;;;5058092;28;20106;-72
2023/06/29 07:36:51;;;;;;;33.78;24.83;;;20.80;99.90;;;;;;5048866;28;20045;-72
2023/06/29 07:39:17;;;;;;;32.08;24.80;;;20.90;99.90;;;;;;5048883;28;20091;-72
2023/06/29 07:41:43;;;;;;;33.97;24.23;;;20.90;99.90;;;;;;5050066;28;20040;-72
2023/06/29 07:44:09;;;;;;;33.78;23.30;;;21.00;99.90;;;;;;5048851;28;20092;-72
2023/06/29 07:46:35;;;;;;;35.95;24.23;;;21.00;99.90;;;;;;5035371;28;20047;-72
2023/06/29 07:49:01;;;;;;;33.42;23.25;;;21.10;99.90;;;;;;5036132;28;20037;-72
2023/06/29 07:51:32;;;;;;;34.28;24.33;;;21.10;99.90;;;;;;5054108;28;20116;-71
2023/06/29 07:54:00;;;;;;;36.70;23.75;;;21.10;99.90;;;;;;5052573;28;20057;-70
2023/06/29 07:56:27;;;;;;;34.85;22.63;;;21.20;99.90;;;;;;5052472;28;20048;-70
2023/06/29 07:58:52;;;;;;;39.38;22.75;;;21.20;99.90;;;;;;5051824;28;20474;-70
2023/06/29 08:01:18;;;;;;;35.70;23.75;;;21.30;99.90;;;;;;5052336;28;20120;-70
2023/06/29 08:03:45;;;;;;;36.78;23.42;;;21.30;99.90;;;;;;5053655;28;20049;-70
2023/06/29 08:06:11;;;;;;;32.92;22.52;;;21.40;99.90;;;;;;5052608;28;20503;-70
2023/06/29 08:08:36;;;;;;;32.38;23.08;;;21.50;99.90;;;;;;5053469;28;20099;-70
2023/06/29 08:11:02;;;;;;;32.92;23.63;;;21.60;99.90;;;;;;5052261;28;20052;-70
2023/06/29 08:13:28;;;;;;;39.80;23.90;;;21.60;99.90;;;;;;5053234;28;20040;-70
2023/06/29 08:15:53;;;;;;;36.25;23.73;;;21.70;99.90;;;;;;5052098;28;20037;-71
2023/06/29 08:18:19;;;;;;;44.15;24.67;;;21.90;99.90;;;;;;5035407;28;20059;-71
2023/06/29 08:20:48;;;;;;;33.03;23.25;;;22.00;99.90;;;;;;5052297;28;20202;-71
2023/06/29 08:23:14;;;;;;;33.72;24.23;;;22.00;99.90;;;;;;5035451;28;20084;-71
2023/06/29 08:25:40;;;;;;;34.33;23.20;;;22.20;99.90;;;;;;5053278;28;20041;-71
2023/06/29 08:28:06;;;;;;;33.58;23.48;;;22.10;99.90;;;;;;5052831;28;20122;-71
2023/06/29 08:30:33;;;;;;;36.83;24.10;;;22.10;99.90;;;;;;5053084;28;20080;-70
2023/06/29 08:32:59;;;;;;;32.72;22.95;;;22.00;99.90;;;;;;5051719;28;20048;-70
2023/06/29 08:35:24;;;;;;;31.05;22.50;;;21.90;99.90;;;;;;5054776;28;20057;-70
2023/06/29 08:37:50;;;;;;;32.30;23.52;;;21.80;99.90;;;;;;5071805;28;20115;-70
2023/06/29 08:40:21;;;;;;;30.65;23.27;;;21.80;99.90;;;;;;5072786;28;20032;-70
2023/06/29 08:42:47;;;;;;;36.38;23.38;;;21.80;99.90;;;;;;5054906;28;20498;-70
2023/06/29 08:45:13;;;;;;;36.67;23.17;;;21.80;99.90;;;;;;5054682;28;20123;-71
2023/06/29 08:47:40;;;;;;;33.72;22.42;;;21.80;99.90;;;;;;5054891;28;20131;-71
2023/06/29 08:50:09;;;;;;;36.58;22.55;;;21.80;99.90;;;;;;5054596;28;20414;-70
2023/06/29 08:52:35;;;;;;;35.60;23.15;;;21.90;99.90;;;;;;5071431;28;20529;-70
2023/06/29 08:55:02;;;;;;;35.15;22.55;;;21.90;99.90;;;;;;5071392;28;20044;-70
2023/06/29 08:57:31;;;;;;;34.22;22.95;;;21.90;99.90;;;;;;5071161;28;20040;-70
2023/06/29 08:59:59;;;;;;;32.90;22.73;;;22.00;99.90;;;;;;5072446;28;20341;-70
2023/06/29 09:02:25;;;;;;;31.65;23.33;;;22.00;99.90;;;;;;5038050;28;20040;-71
2023/06/29 09:04:51;;;;;;;29.30;20.95;;;22.00;99.90;;;;;;5054283;28;20044;-71
2023/06/29 09:07:16;;;;;;;37.20;22.10;;;22.10;99.90;;;;;;5054658;28;20059;-70
2023/06/29 09:09:43;;;;;;;34.08;22.65;;;22.20;99.90;;;;;;5054461;28;20389;-69
2023/06/29 09:12:11;;;;;;;29.48;20.73;;;22.30;99.90;;;;;;5071067;28;20508;-70
2023/06/29 09:14:43;;;;;;;34.20;22.55;;;22.40;99.90;;;;;;5072172;28;20087;-70
2023/06/29 09:17:17;;;;;;;32.13;21.42;;;22.50;99.90;;;;;;5072300;28;20080;-70
2023/06/29 09:19:54;;;;;;;30.23;20.17;;;22.70;99.90;;;;;;5054221;28;20072;-70
2023/06/29 09:22:21;;;;;;;35.80;20.25;;;22.90;99.90;;;;;;5054107;28;20524;-71
2023/06/29 09:24:48;;;;;;;31.85;20.15;;;22.90;99.90;;;;;;5070815;28;20402;-71
2023/06/29 09:27:13;;;;;;;26.05;18.58;;;22.90;99.90;;;;;;5053946;28;20051;-71
2023/06/29 09:29:40;;;;;;;30.90;19.92;;;23.00;99.90;;;;;;5071646;28;20036;-71
2023/06/29 09:32:12;;;;;;;30.33;20.23;;;23.10;99.90;;;;;;5054177;28;20456;-71
2023/06/29 09:34:47;;;;;;;32.10;20.38;;;23.10;99.90;;;;;;5053844;28;20052;-71
2023/06/29 09:37:16;;;;;;;28.55;20.55;;;23.10;99.90;;;;;;5053922;28;20460;-71
2023/06/29 09:40:08;;;;;;;29.58;21.63;;;23.10;99.90;;;;;;5054062;28;20060;-71
2023/06/29 09:42:38;;;;;;;29.40;20.90;;;23.00;99.90;;;;;;5053742;28;20128;-71
2023/06/29 09:45:14;;;;;;;32.47;21.10;;;22.90;99.90;;;;;;5053822;28;20135;-71
2023/06/29 09:47:49;;;;;;;30.05;21.48;;;22.90;99.90;;;;;;5053657;28;20054;-71
2023/06/29 09:50:22;;;;;;;32.65;20.83;;;22.90;99.90;;;;;;5053413;28;20093;-71
2023/06/29 09:52:51;;;;;;;32.25;21.63;;;22.90;99.90;;;;;;5037050;28;20051;-71
2023/06/29 09:55:17;;;;;;;29.35;20.90;;;22.90;99.90;;;;;;5071278;28;20105;-71
2023/06/29 09:57:49;;;;;;;29.98;19.58;;;22.90;99.90;;;;;;5036850;28;20051;-72
2023/06/29 10:00:18;;;;;;;28.85;21.27;;;22.90;99.90;;;;;;5053614;28;20513;-71
2023/06/29 10:02:44;;;;;;;28.73;20.25;;;22.90;99.90;;;;;;5070120;28;20036;-71
2023/06/29 10:05:10;;;;;;;30.27;20.60;;;22.80;99.90;;;;;;5053172;28;20098;-70
2023/06/29 10:07:37;;;;;;;30.33;19.90;;;22.80;99.90;;;;;;5053328;28;20575;-71
2023/06/29 10:10:05;;;;;;;27.27;19.52;;;22.80;99.90;;;;;;5036432;28;20114;-70
2023/06/29 10:12:33;;;;;;;30.75;19.95;;;22.70;99.90;;;;;;5053104;28;20044;-70
2023/06/29 10:15:08;;;;;;;26.48;19.95;;;22.70;99.90;;;;;;5053306;28;20051;-70
2023/06/29 10:17:53;;;;;;;30.55;19.92;;;22.60;99.90;;;;;;5071143;28;20086;-70
2023/06/29 10:20:21;;;;;;;31.15;20.75;;;22.40;99.90;;;;;;5053267;28;20128;-70
2023/06/29 10:22:49;;;;;;;30.42;19.90;;;22.40;99.90;;;;;;5070870;28;20044;-70
2023/06/29 10:25:18;;;;;;;27.40;19.10;;;22.30;99.90;;;;;;5069673;28;20123;-70
2023/06/29 10:27:45;;;;;;;28.35;18.17;;;22.30;99.90;;;;;;5052820;28;20071;-70
2023/06/29 10:30:11;;;;;;;28.20;18.40;;;22.20;99.90;;;;;;5053141;28;20048;-70
2023/06/29 10:32:40;;;;;;;24.50;17.85;;;22.20;99.90;;;;;;5069416;28;20044;-70
2023/06/29 10:35:12;;;;;;;26.20;18.02;;;22.10;99.90;;;;;;5053042;28;20053;-70
2023/06/29 10:37:41;;;;;;;23.35;17.40;;;22.00;99.90;;;;;;5066387;28;20045;-70
2023/06/29 10:40:28;;;;;;;27.80;18.60;;;21.90;99.90;;;;;;5050614;28;20120;-70
2023/06/29 10:42:55;;;;;;;27.95;18.80;;;21.90;99.90;;;;;;5049445;28;20048;-70
2023/06/29 10:45:21;;;;;;;28.60;19.23;;;21.80;99.90;;;;;;5049316;28;20410;-71
2023/06/29 10:47:55;;;;;;;28.90;19.95;;;21.80;99.90;;;;;;5050711;28;20036;-70
2023/06/29 10:50:27;;;;;;;30.88;19.08;;;21.80;99.90;;;;;;5049319;28;20375;-70
2023/06/29 10:52:58;;;;;;;27.02;19.00;;;21.80;99.90;;;;;;5050526;28;20055;-70
2023/06/29 10:55:34;;;;;;;29.88;20.13;;;21.70;99.90;;;;;;5032578;28;20047;-70
2023/06/29 10:58:11;;;;;;;25.25;17.40;;;21.70;99.90;;;;;;5048758;28;20045;-70
2023/06/29 11:00:38;;;;;;;27.17;18.45;;;21.70;99.90;;;;;;5034214;28;20071;-70
2023/06/29 11:03:03;;;;;;;26.70;18.88;;;21.70;99.90;;;;;;5032532;28;20084;-70
2023/06/29 11:05:32;;;;;;;25.65;17.70;;;21.60;99.90;;;;;;5050235;28;20075;-70
2023/06/29 11:07:58;;;;;;;27.13;19.42;;;21.60;99.90;;;;;;5050276;28;20040;-70
2023/06/29 11:10:24;;;;;;;27.40;19.10;;;21.60;99.90;;;;;;5050197;28;20508;-70
2023/06/29 11:12:51;;;;;;;30.13;20.52;;;21.60;99.90;;;;;;5050054;28;20234;-70
2023/06/29 11:15:18;;;;;;;27.98;20.98;;;21.50;99.90;;;;;;5050271;28;20029;-70
2023/06/29 11:17:45;;;;;;;28.05;19.65;;;21.50;99.90;;;;;;5050500;28;20037;-70
2023/06/29 11:20:20;;;;;;;32.28;19.98;;;21.50;99.90;;;;;;5051984;28;20112;-70
2023/06/29 11:22:48;;;;;;;32.05;20.10;;;21.50;99.90;;;;;;5038948;28;20304;-70
2023/06/29 11:25:15;;;;;;;28.88;19.48;;;21.60;99.90;;;;;;5055448;28;20137;-70
2023/06/29 11:27:41;;;;;;;27.30;18.73;;;21.70;99.90;;;;;;5055317;28;20040;-70
2023/06/29 11:30:09;;;;;;;30.50;20.85;;;21.70;99.90;;;;;;5038889;28;20052;-71
2023/06/29 11:32:36;;;;;;;31.15;21.95;;;21.80;99.90;;;;;;5055392;28;20129;-70
2023/06/29 11:35:08;;;;;;;29.08;20.67;;;21.80;99.90;;;;;;5056606;28;20053;-71
2023/06/29 11:37:37;;;;;;;34.00;22.05;;;21.90;99.90;;;;;;5056642;28;20503;-71
2023/06/29 11:40:07;;;;;;;32.30;20.52;;;22.10;99.90;;;;;;5055733;28;20076;-71
2023/06/29 11:42:35;;;;;;;32.35;22.48;;;22.30;99.90;;;;;;5039640;28;20102;-71
2023/06/29 11:45:06;;;;;;;33.30;22.40;;;22.40;99.90;;;;;;5055362;28;20102;-70
2023/06/29 11:47:33;;;;;;;32.33;22.48;;;22.50;99.90;;;;;;5056668;28;20041;-71
2023/06/29 11:50:00;;;;;;;30.33;21.30;;;22.70;99.90;;;;;;5056645;28;20124;-71
2023/06/29 11:52:32;;;;;;;33.95;22.67;;;22.90;99.90;;;;;;5056879;28;20047;-71
2023/06/29 11:55:11;;;;;;;29.85;21.92;;;23.00;99.90;;;;;;5056511;28;20095;-71
2023/06/29 11:57:38;;;;;;;30.65;21.45;;;23.10;99.90;;;;;;5055115;28;20037;-71
2023/06/29 12:00:24;;;;;;;32.30;21.27;;;23.20;99.90;;;;;;5055259;28;20556;-71
2023/06/29 12:02:50;;;;;;;32.13;20.30;;;23.20;99.90;;;;;;5041544;28;20056;-70
2023/06/29 12:05:16;;;;;;;31.65;21.23;;;23.30;99.90;;;;;;5055278;28;20048;-70
2023/06/29 12:07:46;;;;;;;29.30;19.98;;;23.50;99.90;;;;;;5055059;28;20044;-71
2023/06/29 12:10:27;;;;;;;29.95;19.75;;;23.70;99.90;;;;;;5056511;28;20041;-71
2023/06/29 12:12:55;;;;;;;24.02;18.52;;;23.90;99.90;;;;;;5054980;28;20047;-71
2023/06/29 12:15:24;;;;;;;27.50;19.40;;;24.00;99.90;;;;;;5056332;28;20041;-71
2023/06/29 12:17:50;;;;;;;24.15;17.33;;;24.10;99.90;;;;;;5056392;28;20120;-71
2023/06/29 12:20:40;;;;;;;24.83;18.60;;;24.00;99.90;;;;;;5038671;28;20056;-71
2023/06/29 12:23:06;;;;;;;23.13;17.23;;;24.10;99.90;;;;;;5056168;28;20036;-71
2023/06/29 12:25:40;;;;;;;25.65;17.55;;;24.10;99.90;;;;;;5055310;28;20555;-71
2023/06/29 12:28:05;;;;;;;25.42;18.42;;;24.30;99.90;;;;;;5054826;28;20055;-71
2023/06/29 12:30:31;;;;;;;24.70;17.67;;;24.40;99.90;;;;;;5055023;28;20044;-70